Time;durP1;ratioP1;P1;durP2;ratioP2;P2;SDS_P1;SDS_P2;PMS_P1;PMS_P2;Temp;Humidity;BMP_temperature;BMP_pressure;BME280_temperature;BME280_humidity;BME280_pressure;Samples;Min_cycle;Max_cycle;Signal;HPM_P1;HPM_P2
2023/07/31 00:00:15;;;;;;;5.82;1.48;;;;;;;-146.25;100.00;52281.00;2087268;28;35964;-71
2023/07/31 00:01:19;;;;;;;3.33;1.67;;;;;;;-146.25;100.00;52307.38;2087677;28;20181;-72
2023/07/31 00:02:21;;;;;;;4.03;1.60;;;;;;;-146.25;100.00;52291.16;2086877;28;37603;-71
2023/07/31 00:03:22;;;;;;;6.40;1.83;;;;;;;-146.25;100.00;52297.22;2086801;28;34980;-72
2023/07/31 00:04:24;;;;;;;4.22;1.75;;;;;;;-146.25;100.00;52303.31;2087116;28;34442;-72
2023/07/31 00:05:26;;;;;;;3.13;1.40;;;;;;;-146.25;100.00;52285.06;2087102;28;36889;-71
2023/07/31 00:06:27;;;;;;;5.10;1.77;;;;;;;-146.25;100.00;52337.78;2087880;28;20903;-72
2023/07/31 00:07:29;;;;;;;3.63;1.52;;;;;;;-146.25;100.00;52246.53;2086144;28;36878;-72
2023/07/31 00:08:31;;;;;;;5.47;1.45;;;;;;;-146.25;100.00;52311.44;2087164;28;32905;-71
2023/07/31 00:09:35;;;;;;;4.30;1.60;;;;;;;-146.25;100.00;52272.91;2087268;28;32346;-71
2023/07/31 00:10:38;;;;;;;3.17;1.23;;;;;;;-146.25;100.00;52323.59;2087908;28;20042;-71
2023/07/31 00:11:39;;;;;;;3.35;1.30;;;;;;;-146.25;100.00;52283.03;2086795;28;35061;-72
2023/07/31 00:12:45;;;;;;;4.68;1.50;;;;;;;-146.25;100.00;52311.44;2087638;28;36372;-71
2023/07/31 00:13:47;;;;;;;5.45;1.60;;;;;;;-146.25;100.00;52307.38;2088438;28;34944;-72
2023/07/31 00:14:49;;;;;;;7.30;1.38;;;;;;;-146.25;100.00;52339.81;2088455;28;33603;-71
2023/07/31 00:15:50;;;;;;;3.65;1.38;;;;;;;-146.25;100.00;52315.47;2087275;28;38809;-71
2023/07/31 00:16:55;;;;;;;5.28;1.23;;;;;;;-146.25;100.00;52307.38;2088012;28;33811;-72
2023/07/31 00:17:56;;;;;;;4.93;1.10;;;;;;;-146.25;100.00;52319.53;2088714;28;20140;-72
2023/07/31 00:18:58;;;;;;;3.60;1.38;;;;;;;-146.25;100.00;52307.38;2088608;28;34025;-72
2023/07/31 00:20:00;;;;;;;4.00;1.25;;;;;;;-146.25;100.00;52276.97;2088101;28;34395;-71
2023/07/31 00:21:02;;;;;;;3.88;1.30;;;;;;;-146.25;100.00;52250.59;2087805;28;33619;-70
2023/07/31 00:22:04;;;;;;;3.40;1.25;;;;;;;-146.25;100.00;52307.38;2087024;28;38419;-71
2023/07/31 00:23:06;;;;;;;3.65;0.80;;;;;;;-146.25;100.00;52287.09;2088262;28;36903;-72
2023/07/31 00:24:08;;;;;;;3.55;1.25;;;;;;;-146.25;100.00;52270.88;2087935;28;34484;-71
2023/07/31 00:25:12;;;;;;;3.38;1.48;;;;;;;-146.25;100.00;52321.56;2088279;28;37327;-71
2023/07/31 00:26:14;;;;;;;2.05;0.70;;;;;;;-146.25;100.00;52305.34;2088459;28;20033;-72
2023/07/31 00:27:15;;;;;;;2.22;1.05;;;;;;;-146.25;100.00;52264.78;2089008;28;22077;-71
2023/07/31 00:28:20;;;;;;;2.60;1.08;;;;;;;-146.25;100.00;52285.06;2087752;28;20057;-72
2023/07/31 00:29:21;;;;;;;3.75;1.10;;;;;;;-146.25;100.00;52311.44;2088080;28;26806;-72
2023/07/31 00:30:25;;;;;;;3.67;1.00;;;;;;;-146.25;100.00;52335.75;2087585;28;32266;-72
2023/07/31 00:31:28;;;;;;;2.25;0.90;;;;;;;-146.25;100.00;52301.28;2088447;28;20168;-72
2023/07/31 00:32:30;;;;;;;5.93;1.23;;;;;;;-146.25;100.00;52254.66;2087932;28;29720;-72
2023/07/31 00:33:35;;;;;;;4.13;1.00;;;;;;;-146.25;100.00;52313.44;2088975;28;20050;-71
2023/07/31 00:34:37;;;;;;;3.35;1.40;;;;;;;-146.25;100.00;52297.22;2088377;28;20954;-73
2023/07/31 00:35:39;;;;;;;3.22;1.15;;;;;;;-146.25;100.00;52287.09;2087720;28;29192;-73
2023/07/31 00:36:41;;;;;;;3.05;1.08;;;;;;;-146.25;100.00;52291.16;2079253;28;30685;-73
2023/07/31 00:37:43;;;;;;;2.47;0.98;;;;;;;-146.25;100.00;52307.38;2087856;28;20050;-73
2023/07/31 00:38:45;;;;;;;3.85;1.20;;;;;;;-146.25;100.00;52315.47;2071256;28;27027;-74
2023/07/31 00:39:46;;;;;;;3.03;0.88;;;;;;;-146.25;100.00;52291.16;2079707;28;30762;-71
2023/07/31 00:40:48;;;;;;;3.00;0.90;;;;;;;-146.25;100.00;52305.34;2087754;28;27516;-71
2023/07/31 00:41:50;;;;;;;3.10;1.20;;;;;;;-146.25;100.00;52264.78;2088239;28;29063;-71
2023/07/31 00:42:52;;;;;;;1.98;0.90;;;;;;;-146.25;100.00;52323.59;2087337;28;28927;-71
2023/07/31 00:43:53;;;;;;;2.47;1.00;;;;;;;-146.25;100.00;52270.88;2087523;28;35683;-72
2023/07/31 00:44:55;;;;;;;3.20;1.10;;;;;;;-146.25;100.00;52301.28;2087313;28;29138;-71
2023/07/31 00:45:57;;;;;;;2.60;1.02;;;;;;;-146.25;100.00;52270.88;2079517;28;30905;-71
2023/07/31 00:47:00;;;;;;;2.67;1.00;;;;;;;-146.25;100.00;52260.72;2088085;28;20049;-71
2023/07/31 00:48:06;;;;;;;2.45;1.00;;;;;;;-146.25;100.00;52315.47;2088288;28;20060;-71
2023/07/31 00:49:09;;;;;;;2.78;1.00;;;;;;;-146.25;100.00;52301.28;2089295;28;21060;-74
2023/07/31 00:50:12;;;;;;;3.22;1.27;;;;;;;-146.25;100.00;52321.56;2095214;28;28819;-72
2023/07/31 00:51:14;;;;;;;3.25;1.10;;;;;;;-146.25;100.00;52313.44;2088517;28;20045;-71
2023/07/31 00:52:16;;;;;;;3.20;1.15;;;;;;;-146.25;100.00;52272.91;2087699;28;36452;-71
2023/07/31 00:53:18;;;;;;;2.15;1.10;;;;;;;-146.25;100.00;52321.56;2087325;28;28294;-71
2023/07/31 00:54:20;;;;;;;2.42;1.10;;;;;;;-146.25;100.00;52262.75;2080481;28;20037;-71
2023/07/31 00:55:24;;;;;;;4.15;1.40;;;;;;;-146.25;100.00;52331.69;2079786;28;20166;-71
2023/07/31 00:56:28;;;;;;;2.63;0.85;;;;;;;-146.25;100.00;52327.66;2087953;28;26111;-71
2023/07/31 00:57:33;;;;;;;2.80;1.10;;;;;;;-146.25;100.00;52256.69;2095281;28;28593;-71
2023/07/31 00:58:36;;;;;;;2.77;1.50;;;;;;;-146.25;100.00;52270.88;2046781;28;1174404;-71
2023/07/31 00:59:38;;;;;;;5.43;1.55;;;;;;;-146.25;100.00;52287.09;2087877;28;28248;-71
2023/07/31 01:00:40;;;;;;;4.47;1.70;;;;;;;-146.25;100.00;52264.78;2079959;28;30913;-71
2023/07/31 01:01:42;;;;;;;5.63;1.40;;;;;;;-146.25;100.00;52329.66;2088346;28;20054;-71
2023/07/31 01:02:49;;;;;;;2.08;1.30;;;;;;;-146.25;100.00;52317.50;2088288;28;21027;-71
2023/07/31 01:03:55;;;;;;;3.30;1.48;;;;;;;-146.25;100.00;52319.53;2081346;28;20966;-72
2023/07/31 01:04:59;;;;;;;3.50;1.35;;;;;;;-146.25;100.00;52339.81;2089165;28;34332;-73
2023/07/31 01:06:26;;;;;;;3.70;1.40;;;;;;;-146.25;100.00;52303.31;2095574;28;24507;-71
2023/07/31 01:07:59;;;;;;;3.08;1.40;;;;;;;-146.25;100.00;52335.75;2088469;28;36131;-72
2023/07/31 01:09:13;;;;;;;2.75;1.40;;;;;;;-146.25;100.00;52311.44;2087509;28;34104;-72
2023/07/31 01:10:33;;;;;;;3.80;1.67;;;;;;;-146.25;100.00;52309.41;2087760;28;33553;-74
2023/07/31 01:11:51;;;;;;;2.92;1.30;;;;;;;-146.25;100.00;52291.16;2086938;28;29939;-73
2023/07/31 01:12:53;;;;;;;3.97;1.60;;;;;;;-146.25;100.00;52266.81;2091484;28;24223;-71
2023/07/31 01:13:56;;;;;;;4.15;1.75;;;;;;;-146.25;100.00;52291.16;2096401;28;27604;-73
2023/07/31 01:15:06;;;;;;;2.55;1.30;;;;;;;-146.25;100.00;52266.81;2088010;28;25798;-72
2023/07/31 01:16:08;;;;;;;4.38;1.50;;;;;;;-146.25;100.00;52335.75;2088138;28;20949;-72
2023/07/31 01:17:10;;;;;;;2.85;1.40;;;;;;;-146.25;100.00;52293.19;2089185;28;20134;-73
2023/07/31 01:18:13;;;;;;;2.80;1.50;;;;;;;-146.25;100.00;52256.69;2089332;28;21007;-71
2023/07/31 01:19:20;;;;;;;2.33;1.23;;;;;;;-146.25;100.00;52297.22;2087701;28;31765;-73
2023/07/31 01:20:26;;;;;;;3.65;1.65;;;;;;;-146.25;100.00;52266.81;2088567;28;20119;-72
2023/07/31 01:21:46;;;;;;;2.90;1.65;;;;;;;-146.25;100.00;52274.94;2088212;28;27246;-72
2023/07/31 01:23:19;;;;;;;2.40;1.13;;;;;;;-146.25;100.00;52327.66;2082995;28;20164;-71
2023/07/31 01:24:41;;;;;;;2.88;1.17;;;;;;;-146.25;100.00;52289.13;2086937;28;30965;-72
2023/07/31 01:26:04;;;;;;;2.80;1.33;;;;;;;-146.25;100.00;52315.47;2088711;28;32217;-71
2023/07/31 01:27:16;;;;;;;2.10;1.30;;;;;;;-146.25;100.00;52291.16;2087839;28;32532;-72
2023/07/31 01:28:27;;;;;;;3.03;1.48;;;;;;;-146.25;100.00;52317.50;2090475;28;29160;-72
2023/07/31 01:29:43;;;;;;;4.85;1.50;;;;;;;-146.25;100.00;52319.53;2094832;28;20041;-72
2023/07/31 01:30:49;;;;;;;2.65;1.58;;;;;;;-146.25;100.00;52297.22;2088530;28;29063;-72
2023/07/31 01:31:55;;;;;;;3.17;1.50;;;;;;;-146.25;100.00;52254.66;2087893;28;32251;-73
2023/07/31 01:32:57;;;;;;;2.65;1.60;;;;;;;-146.25;100.00;52287.09;2087726;28;29776;-74
2023/07/31 01:34:01;;;;;;;2.95;1.20;;;;;;;-146.25;100.00;52242.50;2087784;28;32208;-75
2023/07/31 01:35:06;;;;;;;3.05;1.40;;;;;;;-146.25;100.00;52242.50;2079657;28;20093;-75
2023/07/31 01:36:08;;;;;;;3.80;1.60;;;;;;;-146.25;100.00;52250.59;2080625;28;28890;-77
2023/07/31 01:37:10;;;;;;;3.40;1.70;;;;;;;-146.25;100.00;52262.75;2079071;28;33160;-77
2023/07/31 01:38:12;;;;;;;3.63;1.85;;;;;;;-146.25;100.00;52305.34;2080178;28;20922;-76
2023/07/31 01:39:15;;;;;;;4.57;2.10;;;;;;;-146.25;100.00;52295.19;2087865;28;27606;-78
2023/07/31 01:40:17;;;;;;;2.28;1.73;;;;;;;-146.25;100.00;52291.16;2087989;28;28906;-78
2023/07/31 01:41:29;;;;;;;3.45;2.10;;;;;;;-146.25;100.00;52313.44;2087477;28;25950;-78
2023/07/31 01:42:33;;;;;;;3.22;1.88;;;;;;;-146.25;100.00;52270.88;2088813;28;20053;-78
2023/07/31 01:43:35;;;;;;;2.40;2.17;;;;;;;-146.25;100.00;52307.38;2088568;28;20887;-78
2023/07/31 01:44:38;;;;;;;3.50;2.20;;;;;;;-146.25;100.00;52274.94;2088056;28;20045;-79
2023/07/31 01:45:40;;;;;;;5.85;2.72;;;;;;;-146.25;100.00;52303.31;2088186;28;20044;-79
2023/07/31 01:46:42;;;;;;;5.05;2.25;;;;;;;-146.25;100.00;52248.56;2088462;28;27621;-80
2023/07/31 01:47:44;;;;;;;5.40;2.55;;;;;;;-146.25;100.00;52268.84;2088274;28;28516;-82
2023/07/31 01:48:48;;;;;;;5.45;2.10;;;;;;;-146.25;100.00;52301.28;2087907;28;20048;-82
2023/07/31 01:49:50;;;;;;;3.38;2.53;;;;;;;-146.25;100.00;52276.97;2087863;28;20033;-81
2023/07/31 01:50:52;;;;;;;6.57;2.80;;;;;;;-146.25;100.00;52266.81;2088705;28;25400;-80
2023/07/31 01:51:54;;;;;;;5.22;2.65;;;;;;;-146.25;100.00;52283.03;2087270;28;31632;-80
2023/07/31 01:52:56;;;;;;;3.58;2.72;;;;;;;-146.25;100.00;52260.72;2088149;28;20050;-80
2023/07/31 01:54:01;;;;;;;3.53;2.45;;;;;;;-146.25;100.00;52287.09;2087771;28;20990;-81
2023/07/31 01:55:04;;;;;;;4.47;2.42;;;;;;;-146.25;100.00;52266.81;2087912;28;23741;-80
2023/07/31 01:56:06;;;;;;;5.28;2.63;;;;;;;-146.25;100.00;52248.56;2087345;28;28214;-82
2023/07/31 01:57:08;;;;;;;3.58;2.70;;;;;;;-146.25;100.00;52248.56;2079993;28;20050;-83
2023/07/31 01:58:10;;;;;;;3.25;2.47;;;;;;;-146.25;100.00;52262.75;2078964;28;33372;-83
2023/07/31 01:59:11;;;;;;;6.65;2.88;;;;;;;-146.25;100.00;52242.50;2079347;28;29429;-84
2023/07/31 02:00:13;;;;;;;4.80;2.50;;;;;;;-146.25;100.00;52254.66;2080806;28;20105;-82
2023/07/31 02:01:15;;;;;;;3.95;2.80;;;;;;;-146.25;100.00;52260.72;2088056;28;41758;-82
2023/07/31 02:02:16;;;;;;;3.60;2.55;;;;;;;-146.25;100.00;52238.44;2088254;28;30833;-83
2023/07/31 02:03:18;;;;;;;3.47;2.40;;;;;;;-146.25;100.00;52242.50;2087367;28;29870;-80
2023/07/31 02:04:20;;;;;;;5.50;2.15;;;;;;;-146.25;100.00;52262.75;2087552;28;20232;-81
2023/07/31 02:05:22;;;;;;;6.05;2.70;;;;;;;-146.25;100.00;52262.75;2088832;28;28714;-81
2023/07/31 02:06:24;;;;;;;3.25;2.45;;;;;;;-146.25;100.00;52295.19;2088539;28;20072;-81
2023/07/31 02:07:26;;;;;;;4.32;2.60;;;;;;;-146.25;100.00;52260.72;2087456;28;20172;-80
2023/07/31 02:08:28;;;;;;;4.63;2.58;;;;;;;-146.25;100.00;52252.63;2079661;28;20188;-80
2023/07/31 02:09:29;;;;;;;4.13;2.30;;;;;;;-146.25;100.00;52254.66;2087775;28;25424;-81
2023/07/31 02:10:33;;;;;;;2.85;2.05;;;;;;;-146.25;100.00;52301.28;2080111;28;20095;-81
2023/07/31 02:11:35;;;;;;;4.18;2.42;;;;;;;-146.25;100.00;52266.81;2087725;28;28248;-81
2023/07/31 02:12:36;;;;;;;3.65;2.13;;;;;;;-146.25;100.00;52250.59;2087620;28;20047;-82
2023/07/31 02:13:38;;;;;;;4.30;2.40;;;;;;;-146.25;100.00;52289.13;2087907;28;26424;-79
2023/07/31 02:14:40;;;;;;;4.22;2.50;;;;;;;-146.25;100.00;52226.25;2088501;28;20045;-79
2023/07/31 02:15:43;;;;;;;4.65;2.65;;;;;;;-146.25;100.00;52295.19;2088348;28;31805;-80
2023/07/31 02:16:45;;;;;;;3.90;2.55;;;;;;;-146.25;100.00;52268.84;2087558;28;20038;-82
2023/07/31 02:17:47;;;;;;;3.45;2.25;;;;;;;-146.25;100.00;52309.41;2080131;28;20054;-83
2023/07/31 02:18:49;;;;;;;2.97;2.50;;;;;;;-146.25;100.00;52274.94;2087255;28;29447;-81
2023/07/31 02:19:50;;;;;;;4.95;2.30;;;;;;;-146.25;100.00;52242.50;2088276;28;28831;-80
2023/07/31 02:20:53;;;;;;;3.55;2.30;;;;;;;-146.25;100.00;52254.66;2088126;28;29920;-80
2023/07/31 02:21:54;;;;;;;3.50;2.55;;;;;;;-146.25;100.00;52264.78;2088011;28;33258;-80
2023/07/31 02:22:57;;;;;;;3.70;2.20;;;;;;;-146.25;100.00;52250.59;2088317;28;20794;-80
2023/07/31 02:24:00;;;;;;;3.25;2.40;;;;;;;-146.25;100.00;52248.56;2088730;28;20952;-80
2023/07/31 02:25:01;;;;;;;5.13;2.63;;;;;;;-146.25;100.00;52250.59;2087542;28;29313;-80
2023/07/31 02:26:03;;;;;;;3.95;2.70;;;;;;;-146.25;100.00;52289.13;2087293;28;34566;-80
2023/07/31 02:27:06;;;;;;;3.17;2.60;;;;;;;-146.25;100.00;52230.31;2087979;28;20881;-80
2023/07/31 02:28:08;;;;;;;3.35;2.60;;;;;;;-146.25;100.00;52260.72;2080563;28;20038;-81
2023/07/31 02:29:10;;;;;;;3.47;2.85;;;;;;;-146.25;100.00;52262.75;2078960;28;20042;-81
2023/07/31 02:30:12;;;;;;;4.45;2.88;;;;;;;-146.25;100.00;52248.56;2079403;28;29928;-81
2023/07/31 02:31:13;;;;;;;3.70;2.72;;;;;;;-146.25;100.00;52252.63;2086629;28;36206;-80
2023/07/31 02:32:15;;;;;;;3.92;2.58;;;;;;;-146.25;100.00;52244.50;2087222;28;24803;-80
2023/07/31 02:33:17;;;;;;;3.90;2.83;;;;;;;-146.25;100.00;52272.91;2079851;28;26222;-81
2023/07/31 02:34:20;;;;;;;4.95;3.20;;;;;;;-146.25;100.00;52303.31;2087887;28;20045;-83
2023/07/31 02:35:22;;;;;;;3.85;2.88;;;;;;;-146.25;100.00;52258.72;2079111;28;20054;-83
2023/07/31 02:36:24;;;;;;;6.43;3.30;;;;;;;-146.25;100.00;52234.38;2071799;28;26320;-85
2023/07/31 02:37:26;;;;;;;3.45;3.00;;;;;;;-146.25;100.00;52266.81;2079199;28;20949;-80
2023/07/31 02:38:28;;;;;;;4.15;3.05;;;;;;;-146.25;100.00;52226.25;2080227;28;29830;-83
2023/07/31 02:39:29;;;;;;;3.67;3.10;;;;;;;-146.25;100.00;52264.78;2078552;28;31766;-83
2023/07/31 02:40:31;;;;;;;4.95;3.38;;;;;;;-146.25;100.00;52297.22;2079062;28;30461;-85
2023/07/31 02:41:35;;;;;;;4.90;3.13;;;;;;;-146.25;100.00;52260.72;2087010;28;20060;-84
2023/07/31 02:42:37;;;;;;;3.75;2.95;;;;;;;-146.25;100.00;52287.09;2080429;28;20034;-82
2023/07/31 02:43:41;;;;;;;5.00;3.60;;;;;;;-146.25;100.00;52276.97;2079210;28;22306;-83
2023/07/31 02:44:43;;;;;;;4.28;3.40;;;;;;;-146.25;100.00;52250.59;2071903;28;20057;-85
2023/07/31 02:45:45;;;;;;;5.45;3.40;;;;;;;-146.25;100.00;52283.03;2079157;28;28551;-83
2023/07/31 02:46:46;;;;;;;6.40;3.50;;;;;;;-146.25;100.00;52287.09;2079588;28;27670;-84
2023/07/31 02:47:48;;;;;;;4.45;3.35;;;;;;;-146.25;100.00;52232.34;2079459;28;29682;-81
2023/07/31 02:48:51;;;;;;;4.20;3.47;;;;;;;-146.25;100.00;52248.56;2080027;28;27104;-83
2023/07/31 02:49:52;;;;;;;4.93;3.70;;;;;;;-146.25;100.00;52262.75;2079446;28;26507;-83
2023/07/31 02:50:54;;;;;;;4.03;3.42;;;;;;;-146.25;100.00;52254.66;2079822;28;25943;-82
2023/07/31 02:51:56;;;;;;;6.10;3.83;;;;;;;-146.25;100.00;52262.75;2087169;28;25916;-80
2023/07/31 02:52:58;;;;;;;5.85;3.90;;;;;;;-146.25;100.00;52268.84;2087126;28;28289;-79
2023/07/31 02:54:00;;;;;;;6.25;4.03;;;;;;;-146.25;100.00;52258.72;2087362;28;20042;-80
2023/07/31 02:55:02;;;;;;;4.55;3.78;;;;;;;-146.25;100.00;52214.09;2079294;28;24500;-80
2023/07/31 02:56:04;;;;;;;4.78;3.55;;;;;;;-146.25;100.00;52250.59;2079142;28;21541;-81
2023/07/31 02:57:06;;;;;;;4.20;3.75;;;;;;;-146.25;100.00;52238.44;2087617;28;24192;-81
2023/07/31 02:58:08;;;;;;;4.38;3.97;;;;;;;-146.25;100.00;52244.50;2087165;28;32548;-81
2023/07/31 02:59:09;;;;;;;4.18;3.78;;;;;;;-146.25;100.00;52226.25;2079058;28;24623;-80
2023/07/31 03:00:11;;;;;;;4.25;3.80;;;;;;;-146.25;100.00;52297.22;2087267;28;24291;-80
2023/07/31 03:01:13;;;;;;;6.45;4.57;;;;;;;-146.25;100.00;52303.31;2087928;28;31444;-81
2023/07/31 03:02:15;;;;;;;5.85;4.40;;;;;;;-146.25;100.00;52287.09;2087730;28;31264;-81
2023/07/31 03:03:17;;;;;;;4.70;4.28;;;;;;;-146.25;100.00;52230.31;2087935;28;34322;-81
2023/07/31 03:04:19;;;;;;;5.20;4.10;;;;;;;-146.25;100.00;52287.09;2087569;28;27831;-81
2023/07/31 03:05:21;;;;;;;5.22;4.47;;;;;;;-146.25;100.00;52246.53;2087992;28;32453;-81
2023/07/31 03:06:22;;;;;;;6.35;4.25;;;;;;;-146.25;100.00;52274.94;2087636;28;20046;-82
2023/07/31 03:07:24;;;;;;;5.07;3.97;;;;;;;-146.25;100.00;52274.94;2087383;28;29697;-83
2023/07/31 03:08:26;;;;;;;6.38;4.60;;;;;;;-146.25;100.00;52256.69;2087524;28;31732;-84
2023/07/31 03:09:29;;;;;;;5.50;4.50;;;;;;;-146.25;100.00;52244.50;2087668;28;20030;-85
2023/07/31 03:10:30;;;;;;;6.10;4.80;;;;;;;-146.25;100.00;52266.81;2087537;28;30043;-86
2023/07/31 03:11:33;;;;;;;4.65;4.13;;;;;;;-146.25;100.00;52252.63;2088846;28;20041;-86
2023/07/31 03:12:34;;;;;;;5.03;4.18;;;;;;;-146.25;100.00;52270.88;2087768;28;28569;-85
2023/07/31 03:13:36;;;;;;;5.00;4.38;;;;;;;-146.25;100.00;52258.72;2087612;28;33412;-82
2023/07/31 03:14:38;;;;;;;5.78;4.50;;;;;;;-146.25;100.00;52250.59;2087611;28;20050;-83
2023/07/31 03:15:43;;;;;;;5.78;5.22;;;;;;;-146.25;100.00;52305.34;2087064;28;24460;-86
2023/07/31 03:16:45;;;;;;;6.75;4.63;;;;;;;-146.25;100.00;52311.44;2095373;28;22087;-86
2023/07/31 03:17:47;;;;;;;5.35;4.60;;;;;;;-146.25;100.00;52276.97;2088355;28;20072;-85
2023/07/31 03:18:48;;;;;;;5.43;4.93;;;;;;;-146.25;100.00;52258.72;2087032;28;30642;-87
2023/07/31 03:19:53;;;;;;;6.60;4.47;;;;;;;-146.25;100.00;52285.06;2079499;28;20046;-84
2023/07/31 03:20:54;;;;;;;5.80;4.57;;;;;;;-146.25;100.00;52264.78;2087402;28;20037;-84
2023/07/31 03:21:56;;;;;;;5.63;4.95;;;;;;;-146.25;100.00;52242.50;2087689;28;28185;-82
2023/07/31 03:22:58;;;;;;;5.40;4.90;;;;;;;-146.25;100.00;52307.38;2087552;28;27964;-83
2023/07/31 03:24:00;;;;;;;5.43;4.93;;;;;;;-146.25;100.00;52262.75;2087850;28;27074;-82
2023/07/31 03:25:03;;;;;;;5.57;4.72;;;;;;;-146.25;100.00;52262.75;2087694;28;20033;-82
2023/07/31 03:26:07;;;;;;;5.75;4.63;;;;;;;-146.25;100.00;52272.91;2087154;28;20126;-82
2023/07/31 03:27:09;;;;;;;5.55;5.05;;;;;;;-146.25;100.00;52250.59;2087123;28;24985;-83
2023/07/31 03:28:11;;;;;;;6.05;5.32;;;;;;;-146.25;100.00;52283.03;2087055;28;35364;-87
2023/07/31 03:29:12;;;;;;;5.45;4.88;;;;;;;-146.25;100.00;52289.13;2087366;28;22945;-87
2023/07/31 03:30:14;;;;;;;4.68;4.20;;;;;;;-146.25;100.00;52250.59;2087247;28;30387;-86
2023/07/31 03:31:16;;;;;;;7.05;4.30;;;;;;;-146.25;100.00;52234.38;2079228;28;20108;-83
2023/07/31 03:32:18;;;;;;;5.13;4.38;;;;;;;-146.25;100.00;52234.38;2087347;28;26414;-86
2023/07/31 03:33:20;;;;;;;6.35;4.45;;;;;;;-146.25;100.00;52307.38;2079001;28;40113;-87
2023/07/31 03:34:22;;;;;;;5.40;4.90;;;;;;;-146.25;100.00;52272.91;2079324;28;28389;-86
2023/07/31 03:35:27;;;;;;;5.53;4.90;;;;;;;-146.25;100.00;52252.63;2087726;28;20887;-87
2023/07/31 03:36:29;;;;;;;5.30;4.85;;;;;;;-146.25;100.00;52258.72;2088330;28;20021;-84
2023/07/31 03:37:31;;;;;;;5.55;4.97;;;;;;;-146.25;100.00;52297.22;2087736;28;35208;-78
2023/07/31 03:38:34;;;;;;;6.88;4.47;;;;;;;-146.25;100.00;52242.50;2087484;28;35904;-82
2023/07/31 03:39:36;;;;;;;4.93;4.45;;;;;;;-146.25;100.00;52262.75;2087459;28;20037;-85
2023/07/31 03:40:38;;;;;;;6.10;5.20;;;;;;;-146.25;100.00;52262.75;2079106;28;34113;-83
2023/07/31 03:41:40;;;;;;;5.35;4.85;;;;;;;-146.25;100.00;52224.25;2087595;28;20148;-83
2023/07/31 03:42:42;;;;;;;5.05;4.55;;;;;;;-146.25;100.00;52270.88;2086949;28;28191;-82
2023/07/31 03:43:51;;;;;;;5.68;4.50;;;;;;;-146.25;100.00;52264.78;2087887;28;20982;-82
2023/07/31 03:44:53;;;;;;;5.20;4.72;;;;;;;-146.25;100.00;52246.53;2088499;28;20038;-82
2023/07/31 03:45:55;;;;;;;5.03;4.63;;;;;;;-146.25;100.00;52270.88;2088140;28;20042;-83
2023/07/31 03:46:59;;;;;;;5.47;4.97;;;;;;;-146.25;100.00;52270.88;2088321;28;20073;-81
2023/07/31 03:48:04;;;;;;;5.50;5.00;;;;;;;-146.25;100.00;52291.16;2088885;28;20144;-84
2023/07/31 03:49:06;;;;;;;6.25;4.80;;;;;;;-146.25;100.00;52281.00;2088041;28;36003;-83
2023/07/31 03:50:08;;;;;;;6.63;5.60;;;;;;;-146.25;100.00;52248.56;2088519;28;29420;-82
2023/07/31 03:51:09;;;;;;;5.90;5.30;;;;;;;-146.25;100.00;52258.72;2089371;28;28939;-82
2023/07/31 03:52:11;;;;;;;5.25;4.75;;;;;;;-146.25;100.00;52254.66;2088781;28;33723;-81
2023/07/31 03:53:13;;;;;;;5.70;5.05;;;;;;;-146.25;100.00;52270.88;2088685;28;36967;-82
2023/07/31 03:54:15;;;;;;;5.55;5.05;;;;;;;-146.25;100.00;52260.72;2088665;28;33603;-82
2023/07/31 03:55:17;;;;;;;5.93;5.32;;;;;;;-146.25;100.00;52254.66;2089238;28;36773;-83
2023/07/31 03:56:19;;;;;;;5.13;4.72;;;;;;;-146.25;100.00;52238.44;2090075;28;20041;-82
2023/07/31 03:57:21;;;;;;;5.80;5.20;;;;;;;-146.25;100.00;52285.06;2088955;28;34705;-83
2023/07/31 03:58:25;;;;;;;5.85;5.05;;;;;;;-146.25;100.00;52242.50;2088973;28;35039;-82
2023/07/31 03:59:27;;;;;;;5.72;5.15;;;;;;;-146.25;100.00;52268.84;2088693;28;36443;-82
2023/07/31 04:00:29;;;;;;;5.50;5.00;;;;;;;-146.25;100.00;52287.09;2089197;28;23500;-82
2023/07/31 04:01:30;;;;;;;5.55;5.05;;;;;;;-146.25;100.00;52260.72;2089208;28;20155;-82
2023/07/31 04:02:32;;;;;;;5.20;4.70;;;;;;;-146.25;100.00;52262.75;2088591;28;36832;-83
2023/07/31 04:03:34;;;;;;;5.90;5.30;;;;;;;-146.25;100.00;52283.03;2088953;28;34572;-83
2023/07/31 04:04:36;;;;;;;5.38;4.82;;;;;;;-146.25;100.00;52276.97;2088445;28;36913;-82
2023/07/31 04:05:40;;;;;;;5.18;4.68;;;;;;;-146.25;100.00;52301.28;2089822;28;20034;-80
2023/07/31 04:06:42;;;;;;;6.70;5.05;;;;;;;-146.25;100.00;52283.03;2088562;28;35051;-81
2023/07/31 04:07:44;;;;;;;5.70;5.07;;;;;;;-146.25;100.00;52274.94;2088540;28;35677;-81
2023/07/31 04:08:45;;;;;;;5.15;4.65;;;;;;;-146.25;100.00;52303.31;2088534;28;39191;-82
2023/07/31 04:09:47;;;;;;;4.85;4.32;;;;;;;-146.25;100.00;52250.59;2088578;28;35149;-82
2023/07/31 04:10:49;;;;;;;4.88;4.18;;;;;;;-146.25;100.00;52270.88;2088898;28;35384;-80
2023/07/31 04:11:51;;;;;;;4.68;4.28;;;;;;;-146.25;100.00;52264.78;2088665;28;36317;-82
2023/07/31 04:12:52;;;;;;;5.20;4.70;;;;;;;-146.25;100.00;52244.50;2088997;28;31606;-82
2023/07/31 04:13:54;;;;;;;4.78;4.32;;;;;;;-146.25;100.00;52266.81;2088865;28;34922;-82
2023/07/31 04:14:56;;;;;;;4.78;4.28;;;;;;;-146.25;100.00;52258.72;2088810;28;37552;-82
2023/07/31 04:15:58;;;;;;;4.35;3.97;;;;;;;-146.25;100.00;52242.50;2088113;28;35907;-81
2023/07/31 04:16:59;;;;;;;3.95;3.65;;;;;;;-146.25;100.00;52305.34;2088230;28;36970;-81
2023/07/31 04:18:01;;;;;;;4.20;3.80;;;;;;;-146.25;100.00;52258.72;2096448;28;36496;-83
2023/07/31 04:19:04;;;;;;;4.25;3.55;;;;;;;-146.25;100.00;52262.75;2089048;28;33914;-82
2023/07/31 04:20:06;;;;;;;3.92;3.60;;;;;;;-146.25;100.00;52242.50;2088657;28;28197;-83
2023/07/31 04:21:09;;;;;;;4.53;3.78;;;;;;;-146.25;100.00;52293.19;2096786;28;32132;-82
2023/07/31 04:22:11;;;;;;;5.15;3.97;;;;;;;-146.25;100.00;52262.75;2095881;28;34010;-82
2023/07/31 04:23:13;;;;;;;3.60;3.30;;;;;;;-146.25;100.00;52299.25;2088670;28;38389;-82
2023/07/31 04:24:15;;;;;;;4.05;3.65;;;;;;;-146.25;100.00;52289.13;2088641;28;35288;-82
2023/07/31 04:25:17;;;;;;;3.58;3.38;;;;;;;-146.25;100.00;52297.22;2088624;28;37462;-81
2023/07/31 04:26:19;;;;;;;4.72;3.25;;;;;;;-146.25;100.00;52297.22;2089471;28;20898;-82
2023/07/31 04:27:21;;;;;;;3.85;3.50;;;;;;;-146.25;100.00;52238.44;2088485;28;36714;-82
2023/07/31 04:28:26;;;;;;;3.40;2.67;;;;;;;-146.25;100.00;52264.78;2088041;28;37125;-82
2023/07/31 04:29:30;;;;;;;4.78;2.90;;;;;;;-146.25;100.00;52293.19;2088275;28;33635;-81
2023/07/31 04:30:32;;;;;;;2.90;2.70;;;;;;;-146.25;100.00;52276.97;2088577;28;37045;-82
2023/07/31 04:31:34;;;;;;;2.85;2.50;;;;;;;-146.25;100.00;52278.97;2088752;28;33426;-81
2023/07/31 04:32:38;;;;;;;2.88;2.65;;;;;;;-146.25;100.00;52262.75;2088559;28;34651;-81
2023/07/31 04:33:40;;;;;;;2.67;2.47;;;;;;;-146.25;100.00;52254.66;2088657;28;36403;-82
2023/07/31 04:34:43;;;;;;;3.00;2.80;;;;;;;-146.25;100.00;52254.66;2088585;28;35476;-82
2023/07/31 04:35:54;;;;;;;2.95;2.28;;;;;;;-146.25;100.00;52270.88;2088480;28;35714;-81
2023/07/31 04:36:55;;;;;;;2.72;2.40;;;;;;;-146.25;100.00;52252.63;2088854;28;34036;-81
2023/07/31 04:37:57;;;;;;;3.10;2.40;;;;;;;-146.25;100.00;52260.72;2088301;28;32971;-80
2023/07/31 04:38:59;;;;;;;2.63;2.42;;;;;;;-146.25;100.00;52242.50;2088729;28;38822;-79
2023/07/31 04:40:01;;;;;;;2.80;2.60;;;;;;;-146.25;100.00;52293.19;2089490;28;20042;-79
2023/07/31 04:41:05;;;;;;;2.67;2.35;;;;;;;-146.25;100.00;52291.16;2088781;28;35275;-79
2023/07/31 04:42:07;;;;;;;1.88;1.77;;;;;;;-146.25;100.00;52274.94;2088231;28;38086;-78
2023/07/31 04:43:09;;;;;;;2.92;2.13;;;;;;;-146.25;100.00;52331.69;2088594;28;34381;-79
2023/07/31 04:44:11;;;;;;;2.88;2.08;;;;;;;-146.25;100.00;52266.81;2088224;28;37248;-78
2023/07/31 04:45:13;;;;;;;1.92;1.83;;;;;;;-146.25;100.00;52281.00;2088833;28;30619;-79
2023/07/31 04:46:14;;;;;;;2.78;2.03;;;;;;;-146.25;100.00;52303.31;2088464;28;32186;-79
2023/07/31 04:47:16;;;;;;;1.63;1.52;;;;;;;-146.25;100.00;52295.19;2088416;28;39058;-79